Time;durP1;ratioP1;P1;durP2;ratioP2;P2;SDS_P1;SDS_P2;PMS_P1;PMS_P2;Temp;Humidity;BMP_temperature;BMP_pressure;BME280_temperature;BME280_humidity;BME280_pressure;Samples;Min_cycle;Max_cycle;Signal;HPM_P1;HPM_P2
2021/08/26 00:06:24;;;;;;;19.17;9.30;;;18.00;56.90;;;;;;6251283;23;20015;-73
2021/08/26 00:08:53;;;;;;;15.45;9.05;;;18.00;57.40;;;;;;6251451;23;20000;-73
2021/08/26 00:11:23;;;;;;;18.63;8.63;;;18.00;57.00;;;;;;6251182;23;20516;-73
2021/08/26 00:13:51;;;;;;;14.80;8.55;;;17.90;56.70;;;;;;6251425;23;19996;-73
2021/08/26 00:16:22;;;;;;;16.05;8.52;;;17.90;56.70;;;;;;6224374;23;20011;-73
2021/08/26 00:18:48;;;;;;;17.13;8.57;;;17.90;56.60;;;;;;6251057;23;19996;-73
2021/08/26 00:21:14;;;;;;;15.98;9.68;;;17.80;56.60;;;;;;6251267;23;20008;-73
2021/08/26 00:23:40;;;;;;;14.77;8.50;;;17.80;56.80;;;;;;6251286;23;20004;-73
2021/08/26 00:26:06;;;;;;;16.13;8.27;;;17.80;56.80;;;;;;6251409;23;20008;-73
2021/08/26 00:28:32;;;;;;;17.25;9.15;;;17.80;56.90;;;;;;6251092;23;20031;-73
2021/08/26 00:30:58;;;;;;;20.35;9.65;;;17.70;57.30;;;;;;6251196;23;20416;-73
2021/08/26 00:33:24;;;;;;;15.45;9.20;;;17.70;57.20;;;;;;6251139;23;20023;-73
2021/08/26 00:35:50;;;;;;;17.13;9.70;;;17.70;57.00;;;;;;6251261;23;20003;-73
2021/08/26 00:38:16;;;;;;;21.95;9.88;;;17.60;57.40;;;;;;6251000;23;20050;-73
2021/08/26 00:40:42;;;;;;;19.48;9.35;;;17.60;57.40;;;;;;6251056;23;20012;-73
2021/08/26 00:43:08;;;;;;;26.38;10.57;;;17.60;58.10;;;;;;6224261;23;20439;-73
2021/08/26 00:45:35;;;;;;;20.90;9.63;;;17.50;57.80;;;;;;6224511;23;20343;-73
2021/08/26 00:48:03;;;;;;;18.30;9.10;;;17.50;57.60;;;;;;6250887;23;20004;-73
2021/08/26 00:50:29;;;;;;;16.63;9.55;;;17.50;57.50;;;;;;6250724;23;20000;-73
2021/08/26 00:52:55;;;;;;;18.05;9.15;;;17.50;57.70;;;;;;6250886;23;20007;-73
2021/08/26 00:55:21;;;;;;;16.60;9.43;;;17.40;57.30;;;;;;6251001;23;20000;-73
2021/08/26 00:57:48;;;;;;;20.23;10.02;;;17.40;57.20;;;;;;6250972;23;20344;-73
2021/08/26 01:00:14;;;;;;;16.63;9.10;;;17.40;57.30;;;;;;6251087;23;20436;-73
2021/08/26 01:03:15;;;;;;;14.02;9.43;;;17.40;57.30;;;;;;6250998;23;20079;-73
2021/08/26 01:05:55;;;;;;;15.70;9.63;;;17.30;57.30;;;;;;6243488;23;20011;-73
2021/08/26 01:08:45;;;;;;;15.52;9.50;;;17.30;57.20;;;;;;6250767;23;20064;-73
2021/08/26 01:11:12;;;;;;;17.08;8.90;;;17.30;57.00;;;;;;6250913;23;20015;-73
2021/08/26 01:13:41;;;;;;;15.32;9.60;;;17.30;57.10;;;;;;6250925;23;20010;-73
2021/08/26 01:16:12;;;;;;;16.40;9.35;;;17.20;58.20;;;;;;6251017;23;20075;-73
2021/08/26 01:18:43;;;;;;;17.67;9.70;;;17.20;57.80;;;;;;6223701;23;20013;-73
2021/08/26 01:21:10;;;;;;;19.10;10.60;;;17.20;57.90;;;;;;6250890;23;20007;-73
2021/08/26 01:23:41;;;;;;;17.48;9.68;;;17.10;57.60;;;;;;6250834;23;20011;-73
2021/08/26 01:26:09;;;;;;;18.83;10.32;;;17.10;57.60;;;;;;6250917;23;20011;-73
2021/08/26 01:28:40;;;;;;;15.95;9.38;;;17.10;57.80;;;;;;6250811;23;20004;-73
2021/08/26 01:31:06;;;;;;;18.33;9.63;;;17.00;57.40;;;;;;6250780;23;20429;-73
2021/08/26 01:33:33;;;;;;;15.90;9.57;;;17.00;57.40;;;;;;6250672;23;19996;-73
2021/08/26 01:36:02;;;;;;;16.45;9.70;;;17.00;57.40;;;;;;6223799;23;20004;-73
2021/08/26 01:38:28;;;;;;;21.13;9.20;;;16.90;57.40;;;;;;6251146;23;20047;-73
2021/08/26 01:40:54;;;;;;;18.00;9.00;;;16.90;57.50;;;;;;6252780;23;20439;-73
2021/08/26 01:43:20;;;;;;;16.00;8.50;;;16.90;57.50;;;;;;6225877;23;20032;-73
2021/08/26 01:45:48;;;;;;;19.98;10.13;;;16.90;57.60;;;;;;6253190;23;20000;-73
2021/08/26 01:48:17;;;;;;;16.65;9.57;;;16.80;57.70;;;;;;6252362;23;20441;-73
2021/08/26 01:50:45;;;;;;;14.93;8.75;;;16.80;57.60;;;;;;6252756;23;20054;-73
2021/08/26 01:53:11;;;;;;;18.90;9.60;;;16.80;57.50;;;;;;6252695;23;20423;-73
2021/08/26 01:55:39;;;;;;;17.48;9.65;;;16.80;57.70;;;;;;6252757;23;20411;-73
2021/08/26 01:58:05;;;;;;;15.32;10.27;;;16.70;57.80;;;;;;6252701;23;20473;-73
2021/08/26 02:00:31;;;;;;;20.63;10.70;;;16.70;57.90;;;;;;6252730;23;19996;-73
2021/08/26 02:02:57;;;;;;;18.27;10.20;;;16.70;61.00;;;;;;6252768;23;20332;-73
2021/08/26 02:05:22;;;;;;;16.95;9.75;;;16.70;58.90;;;;;;6252474;23;20024;-73
2021/08/26 02:07:50;;;;;;;14.95;9.45;;;16.60;58.50;;;;;;6252540;23;20003;-73
2021/08/26 02:10:16;;;;;;;15.90;9.77;;;16.60;58.20;;;;;;6252740;23;20027;-73
2021/08/26 02:12:42;;;;;;;15.15;9.23;;;16.60;58.00;;;;;;6252143;23;20004;-73
2021/08/26 02:15:09;;;;;;;16.90;9.25;;;16.50;58.00;;;;;;6226112;23;20008;-73
2021/08/26 02:17:35;;;;;;;17.48;8.68;;;16.50;57.90;;;;;;6252475;23;20007;-73
2021/08/26 02:20:03;;;;;;;16.23;9.48;;;16.50;57.90;;;;;;6252327;23;19996;-73
2021/08/26 02:22:29;;;;;;;15.85;9.98;;;16.40;58.20;;;;;;6252462;23;20000;-73
2021/08/26 02:24:55;;;;;;;17.45;9.77;;;16.40;58.30;;;;;;6252361;23;20007;-73
2021/08/26 02:27:21;;;;;;;17.35;9.93;;;16.40;58.20;;;;;;6252417;23;20026;-73
2021/08/26 02:29:46;;;;;;;19.02;11.40;;;16.40;58.50;;;;;;6252456;23;20000;-73
2021/08/26 02:32:12;;;;;;;19.63;10.50;;;16.40;60.40;;;;;;6252382;23;20011;-73
2021/08/26 02:34:38;;;;;;;19.73;10.40;;;16.30;59.40;;;;;;6252224;23;19997;-73
2021/08/26 02:37:04;;;;;;;19.10;10.77;;;16.30;60.70;;;;;;6252436;23;20038;-73
2021/08/26 02:39:31;;;;;;;17.45;10.48;;;16.30;60.50;;;;;;6251951;23;20065;-73
2021/08/26 02:41:56;;;;;;;17.73;9.95;;;16.30;59.80;;;;;;6252321;23;20012;-73
2021/08/26 02:44:22;;;;;;;17.38;10.43;;;16.20;59.40;;;;;;6252414;23;20007;-73
2021/08/26 02:46:48;;;;;;;16.05;10.23;;;16.20;59.00;;;;;;6252097;23;20000;-73
2021/08/26 02:49:14;;;;;;;22.23;11.73;;;16.20;61.80;;;;;;6251783;23;20004;-73
2021/08/26 02:51:39;;;;;;;17.10;10.13;;;16.20;60.50;;;;;;6251814;23;20038;-73
2021/08/26 02:54:05;;;;;;;20.77;11.38;;;16.10;59.80;;;;;;6252286;23;20000;-73
2021/08/26 02:56:31;;;;;;;18.55;11.98;;;16.10;59.60;;;;;;6252129;23;20003;-73
2021/08/26 02:58:57;;;;;;;23.15;13.27;;;16.10;59.90;;;;;;6252196;23;20052;-73
2021/08/26 03:01:22;;;;;;;19.98;11.15;;;16.00;61.30;;;;;;6252331;23;20000;-73
2021/08/26 03:03:48;;;;;;;15.85;10.05;;;16.00;60.20;;;;;;6251871;23;20011;-73
2021/08/26 03:06:14;;;;;;;21.42;13.77;;;16.00;59.60;;;;;;6252167;23;20004;-73
2021/08/26 03:08:40;;;;;;;24.20;14.25;;;16.00;66.10;;;;;;6251885;23;20009;-73
2021/08/26 03:11:09;;;;;;;28.58;16.63;;;15.90;67.20;;;;;;6251864;23;20416;-73
2021/08/26 03:13:35;;;;;;;27.23;16.42;;;15.90;68.60;;;;;;6252270;23;19996;-73
2021/08/26 03:16:01;;;;;;;28.17;15.90;;;15.80;67.80;;;;;;6252003;23;20003;-73
2021/08/26 03:18:27;;;;;;;26.52;16.00;;;15.80;67.30;;;;;;6251683;23;20484;-73
2021/08/26 03:20:53;;;;;;;29.23;15.80;;;15.80;65.60;;;;;;6251976;23;20012;-73
2021/08/26 03:23:19;;;;;;;23.77;14.20;;;15.80;65.80;;;;;;6251801;23;20004;-73
2021/08/26 03:25:45;;;;;;;25.33;16.27;;;15.70;65.40;;;;;;6251854;23;20058;-73
2021/08/26 03:28:11;;;;;;;26.00;16.98;;;15.70;67.80;;;;;;6251842;23;20000;-73
2021/08/26 03:30:37;;;;;;;28.08;16.42;;;15.70;69.50;;;;;;6251888;23;20430;-73
2021/08/26 03:33:03;;;;;;;26.80;15.38;;;15.60;67.70;;;;;;6251679;23;20046;-73
2021/08/26 03:35:29;;;;;;;27.08;14.63;;;15.60;66.10;;;;;;6251771;23;19996;-73
2021/08/26 03:37:54;;;;;;;27.50;15.70;;;15.60;66.00;;;;;;6251614;23;20046;-73
2021/08/26 03:40:20;;;;;;;28.73;15.82;;;15.60;65.90;;;;;;6251533;23;20015;-73
2021/08/26 03:42:46;;;;;;;26.58;15.57;;;15.50;64.00;;;;;;6251786;23;20027;-73
2021/08/26 03:45:12;;;;;;;22.00;15.50;;;15.50;66.00;;;;;;6251771;23;20052;-73
2021/08/26 03:47:38;;;;;;;24.23;15.48;;;15.50;65.90;;;;;;6251520;23;20008;-73
2021/08/26 03:50:04;;;;;;;22.80;14.15;;;15.50;68.00;;;;;;6251403;23;20362;-73
2021/08/26 03:52:30;;;;;;;24.13;13.52;;;15.40;65.40;;;;;;6251764;23;20038;-73
2021/08/26 03:54:56;;;;;;;27.08;15.30;;;15.40;64.40;;;;;;6224387;23;20001;-73
2021/08/26 03:57:22;;;;;;;29.48;15.98;;;15.40;67.00;;;;;;6251509;23;20046;-73
2021/08/26 03:59:47;;;;;;;25.35;17.05;;;15.40;68.20;;;;;;6251632;23;20000;-73
2021/08/26 04:02:13;;;;;;;30.27;15.70;;;15.40;69.50;;;;;;6251780;23;20000;-73
2021/08/26 04:04:39;;;;;;;28.33;17.92;;;15.40;68.10;;;;;;6251445;23;20027;-73
2021/08/26 04:07:05;;;;;;;32.72;18.45;;;15.30;69.70;;;;;;6251425;23;20008;-73
2021/08/26 04:09:31;;;;;;;35.22;18.60;;;15.20;71.40;;;;;;6251344;23;20010;-73
2021/08/26 04:11:56;;;;;;;26.17;16.00;;;15.20;70.00;;;;;;6251363;23;20015;-73
2021/08/26 04:14:22;;;;;;;31.13;19.63;;;15.10;67.60;;;;;;6251512;23;20028;-73
2021/08/26 04:16:48;;;;;;;28.55;17.42;;;15.10;72.30;;;;;;6251325;23;20054;-73
2021/08/26 04:19:14;;;;;;;27.75;17.13;;;15.10;69.50;;;;;;6250864;23;20036;-73
2021/08/26 04:21:39;;;;;;;34.05;20.00;;;15.10;71.00;;;;;;6251382;23;20339;-73
2021/08/26 04:24:05;;;;;;;40.35;19.52;;;15.00;72.70;;;;;;6251212;23;20004;-73
2021/08/26 04:26:31;;;;;;;36.42;18.13;;;15.00;71.30;;;;;;6251278;23;20079;-73
2021/08/26 04:28:57;;;;;;;31.05;19.25;;;15.00;70.60;;;;;;6251385;23;20335;-74
2021/08/26 04:31:23;;;;;;;32.72;17.55;;;15.00;71.50;;;;;;6251437;23;20004;-74
2021/08/26 04:33:49;;;;;;;33.08;20.38;;;14.90;70.80;;;;;;6250950;23;20079;-74
2021/08/26 04:36:15;;;;;;;35.72;17.80;;;14.90;73.50;;;;;;6251297;23;20004;-74
2021/08/26 04:38:40;;;;;;;32.97;18.30;;;14.90;71.50;;;;;;6251013;23;19996;-74
2021/08/26 04:41:06;;;;;;;36.03;19.45;;;14.90;72.20;;;;;;6250957;23;20016;-74
2021/08/26 04:43:32;;;;;;;32.97;18.45;;;14.80;73.70;;;;;;6251122;23;20031;-74
2021/08/26 04:45:58;;;;;;;28.35;17.88;;;14.80;72.30;;;;;;6251169;23;20011;-74
2021/08/26 04:48:24;;;;;;;30.90;17.35;;;14.80;72.00;;;;;;6250885;23;20036;-74
2021/08/26 04:50:49;;;;;;;33.00;19.05;;;14.80;71.80;;;;;;6250979;23;20024;-74
2021/08/26 04:53:15;;;;;;;32.45;17.63;;;14.80;72.10;;;;;;6251002;23;19996;-73
2021/08/26 04:55:42;;;;;;;28.50;16.38;;;14.80;72.40;;;;;;6251034;23;20011;-74
2021/08/26 04:58:08;;;;;;;28.23;17.42;;;14.80;72.20;;;;;;6251084;23;20084;-74
2021/08/26 05:00:33;;;;;;;27.98;16.98;;;14.70;72.40;;;;;;6251069;23;19996;-74
2021/08/26 05:02:59;;;;;;;30.52;18.67;;;14.80;70.80;;;;;;6250820;23;20327;-74
2021/08/26 05:05:25;;;;;;;31.30;18.65;;;14.70;72.00;;;;;;6251070;23;20391;-74
2021/08/26 05:07:51;;;;;;;31.45;18.90;;;14.70;73.70;;;;;;6223867;23;20000;-74
2021/08/26 05:10:17;;;;;;;29.52;17.98;;;14.60;72.70;;;;;;6251164;23;20023;-74
2021/08/26 05:12:42;;;;;;;29.23;17.92;;;14.60;74.40;;;;;;6250611;23;20420;-74
2021/08/26 05:15:08;;;;;;;27.42;15.45;;;14.60;73.30;;;;;;6250858;23;20004;-72
2021/08/26 05:17:34;;;;;;;28.38;14.73;;;14.60;70.60;;;;;;6250850;23;20007;-74
2021/08/26 05:20:00;;;;;;;25.70;16.30;;;14.60;69.40;;;;;;6250605;23;19996;-72
2021/08/26 05:22:26;;;;;;;24.45;13.88;;;14.60;70.30;;;;;;6250614;23;20011;-70
2021/08/26 05:24:51;;;;;;;27.42;15.13;;;14.60;69.80;;;;;;6250847;23;20004;-70
2021/08/26 05:27:20;;;;;;;21.55;12.52;;;14.60;70.00;;;;;;6250780;23;20008;-71
2021/08/26 05:29:46;;;;;;;24.60;13.35;;;14.60;67.90;;;;;;6250650;23;20011;-72
2021/08/26 05:32:13;;;;;;;22.95;13.55;;;14.60;68.50;;;;;;6250733;23;20007;-73
2021/08/26 05:34:41;;;;;;;22.65;13.60;;;14.60;69.10;;;;;;6250600;23;20078;-73
2021/08/26 05:37:07;;;;;;;21.25;13.35;;;14.60;67.70;;;;;;6250723;23;20039;-72
2021/08/26 05:39:33;;;;;;;25.35;13.02;;;14.60;67.70;;;;;;6250483;23;20071;-75
2021/08/26 05:41:59;;;;;;;22.85;11.70;;;14.60;66.50;;;;;;6250773;23;20000;-74
2021/08/26 05:44:25;;;;;;;21.23;12.35;;;14.50;65.80;;;;;;6250863;23;20012;-71
2021/08/26 05:46:50;;;;;;;20.23;12.63;;;14.50;66.70;;;;;;6250581;23;20004;-72
2021/08/26 05:49:16;;;;;;;19.13;11.93;;;14.50;66.60;;;;;;6250495;23;20027;-72
2021/08/26 05:51:42;;;;;;;28.23;15.02;;;14.50;66.50;;;;;;6250865;23;20060;-73
2021/08/26 05:54:08;;;;;;;28.20;15.48;;;14.50;71.00;;;;;;6250711;23;20034;-73
2021/08/26 05:56:33;;;;;;;23.42;12.93;;;14.60;69.20;;;;;;6250443;23;20004;-74
2021/08/26 05:58:59;;;;;;;20.42;11.32;;;14.50;66.90;;;;;;6250812;23;19996;-72
2021/08/26 06:01:29;;;;;;;23.15;11.98;;;14.50;65.80;;;;;;6250724;23;20000;-75
2021/08/26 06:03:56;;;;;;;18.30;11.77;;;14.50;65.80;;;;;;6223604;23;20004;-72
2021/08/26 06:06:21;;;;;;;22.45;13.77;;;14.60;65.60;;;;;;6250591;23;20008;-74
2021/08/26 06:08:48;;;;;;;20.60;13.60;;;14.60;68.50;;;;;;6250660;23;20005;-74
2021/08/26 06:11:14;;;;;;;26.15;12.20;;;14.60;67.40;;;;;;6250721;23;20015;-74
2021/08/26 06:13:40;;;;;;;18.50;12.02;;;14.60;66.00;;;;;;6250837;23;19996;-74
2021/08/26 06:16:05;;;;;;;16.38;10.40;;;14.60;65.40;;;;;;6250773;23;20000;-74
2021/08/26 06:18:31;;;;;;;17.70;10.23;;;14.60;65.10;;;;;;6250316;23;19996;-75
2021/08/26 06:20:57;;;;;;;21.50;10.88;;;14.60;64.70;;;;;;6250530;23;20032;-73
2021/08/26 06:23:24;;;;;;;20.25;10.75;;;14.70;65.20;;;;;;6223413;23;20015;-69
2021/08/26 06:25:50;;;;;;;21.02;11.70;;;14.70;65.10;;;;;;6251349;23;20097;-73
2021/08/26 06:28:16;;;;;;;31.05;15.23;;;14.70;65.40;;;;;;6252457;23;20008;-71
2021/08/26 06:30:41;;;;;;;24.88;14.90;;;14.80;64.80;;;;;;6252292;23;20083;-71
2021/08/26 06:33:07;;;;;;;20.20;13.80;;;14.80;64.80;;;;;;6252178;23;20004;-71
2021/08/26 06:35:33;;;;;;;25.33;12.65;;;14.80;64.80;;;;;;6252419;23;20004;-71
2021/08/26 06:37:59;;;;;;;22.73;10.52;;;14.90;64.80;;;;;;6225348;23;20534;-71
2021/08/26 06:40:25;;;;;;;19.73;10.50;;;14.90;64.70;;;;;;6252163;23;20015;-71
2021/08/26 06:42:51;;;;;;;23.80;11.50;;;14.90;65.00;;;;;;6252327;23;20086;-71
2021/08/26 06:45:17;;;;;;;22.52;12.55;;;15.00;64.90;;;;;;6252216;23;20004;-70
2021/08/26 06:47:46;;;;;;;23.23;12.48;;;15.00;66.00;;;;;;6250898;23;20067;-70
2021/08/26 06:50:12;;;;;;;20.25;11.90;;;15.10;67.20;;;;;;6251285;23;20000;-71
2021/08/26 06:52:38;;;;;;;18.25;10.32;;;15.10;66.60;;;;;;6251653;23;20015;-71
2021/08/26 06:55:04;;;;;;;25.63;13.48;;;15.20;66.40;;;;;;6251374;23;19996;-71
2021/08/26 06:57:30;;;;;;;23.05;13.07;;;15.20;66.50;;;;;;6251344;23;20000;-71
2021/08/26 06:59:56;;;;;;;23.23;12.68;;;15.30;67.20;;;;;;6251590;23;19999;-71
2021/08/26 07:02:22;;;;;;;21.25;11.25;;;15.30;67.30;;;;;;6251778;23;20004;-72
2021/08/26 07:04:48;;;;;;;26.92;13.65;;;15.40;67.20;;;;;;6251368;23;20039;-72
2021/08/26 07:07:14;;;;;;;23.92;12.38;;;15.50;67.90;;;;;;6251854;23;20027;-72
2021/08/26 07:09:39;;;;;;;30.58;13.18;;;15.60;68.50;;;;;;6224078;23;20008;-72
2021/08/26 07:12:06;;;;;;;22.50;13.20;;;15.70;69.40;;;;;;6251800;23;20064;-72
2021/08/26 07:14:31;;;;;;;19.65;12.40;;;16.00;70.60;;;;;;6251728;23;20039;-72
2021/08/26 07:16:57;;;;;;;20.15;11.65;;;16.30;72.50;;;;;;6224698;23;20000;-72
2021/08/26 07:19:23;;;;;;;20.80;11.40;;;16.60;72.50;;;;;;6251126;23;19996;-72
2021/08/26 07:21:49;;;;;;;18.15;10.52;;;16.80;72.80;;;;;;6250354;23;20031;-72
2021/08/26 07:24:15;;;;;;;19.75;10.52;;;17.10;72.80;;;;;;6251472;23;20105;-72
2021/08/26 07:26:42;;;;;;;17.52;10.73;;;17.40;73.60;;;;;;6250298;23;20071;-72
2021/08/26 07:29:10;;;;;;;19.27;11.00;;;17.70;74.10;;;;;;6251251;23;20664;-72
2021/08/26 07:31:35;;;;;;;16.30;9.57;;;18.00;74.70;;;;;;6224089;23;20011;-72
2021/08/26 07:34:01;;;;;;;15.98;9.55;;;18.20;74.10;;;;;;6250885;23;19997;-72
2021/08/26 07:36:27;;;;;;;15.52;9.02;;;18.50;73.30;;;;;;6250927;23;20004;-72
2021/08/26 07:38:53;;;;;;;18.05;9.60;;;18.70;73.30;;;;;;6251063;23;20005;-72
2021/08/26 07:41:19;;;;;;;13.98;9.00;;;18.90;73.00;;;;;;6250578;23;20016;-72
2021/08/26 07:43:45;;;;;;;13.38;8.93;;;19.10;71.50;;;;;;6251030;23;20008;-72
2021/08/26 07:46:11;;;;;;;16.38;8.40;;;19.30;71.80;;;;;;6250957;23;20004;-72
2021/08/26 07:48:38;;;;;;;13.00;7.40;;;19.40;71.00;;;;;;6250619;23;20035;-73
2021/08/26 07:51:03;;;;;;;11.90;7.68;;;19.50;70.70;;;;;;6250859;23;20000;-73
2021/08/26 07:53:31;;;;;;;13.45;8.07;;;19.70;70.70;;;;;;6251281;23;19996;-72
2021/08/26 07:55:57;;;;;;;13.13;7.72;;;19.80;71.00;;;;;;6250983;23;20000;-73
2021/08/26 07:58:24;;;;;;;14.23;7.93;;;19.90;70.50;;;;;;6250835;23;19996;-73
2021/08/26 08:00:49;;;;;;;13.02;8.10;;;20.10;69.80;;;;;;6251081;23;20000;-74
2021/08/26 08:03:15;;;;;;;11.52;7.07;;;20.30;68.40;;;;;;6251156;23;20485;-74
2021/08/26 08:05:41;;;;;;;12.10;6.95;;;20.40;67.80;;;;;;6250836;23;19996;-72
2021/08/26 08:08:07;;;;;;;13.45;7.65;;;20.50;68.30;;;;;;6250599;23;20003;-72
2021/08/26 08:10:33;;;;;;;10.25;7.00;;;20.80;68.30;;;;;;6250224;23;20031;-75
2021/08/26 08:12:59;;;;;;;16.60;9.07;;;21.00;67.20;;;;;;6251128;23;20000;-73
2021/08/26 08:15:24;;;;;;;14.82;8.77;;;21.30;66.70;;;;;;6250624;23;20050;-70
2021/08/26 08:17:50;;;;;;;14.70;8.23;;;21.50;65.90;;;;;;6250928;23;20004;-69
2021/08/26 08:20:16;;;;;;;9.20;5.53;;;21.80;64.50;;;;;;6251132;23;20016;-70
2021/08/26 08:22:43;;;;;;;13.73;7.68;;;22.00;66.00;;;;;;6248489;23;20494;-70
2021/08/26 08:25:09;;;;;;;13.20;7.07;;;22.30;63.10;;;;;;6250166;23;20053;-70
2021/08/26 08:27:35;;;;;;;8.43;5.75;;;22.60;64.70;;;;;;6250228;23;20012;-71
2021/08/26 08:30:02;;;;;;;10.40;6.43;;;22.80;65.80;;;;;;6250675;23;20010;-70
2021/08/26 08:32:28;;;;;;;12.20;6.10;;;23.10;64.80;;;;;;6250585;23;20006;-71
2021/08/26 08:34:54;;;;;;;9.90;5.75;;;23.50;64.90;;;;;;6250272;23;20474;-70
2021/08/26 08:37:19;;;;;;;15.48;6.03;;;23.80;64.40;;;;;;6250899;23;20004;-70
2021/08/26 08:39:45;;;;;;;12.63;5.72;;;24.10;64.30;;;;;;6250444;23;20074;-70
2021/08/26 08:42:11;;;;;;;11.00;5.80;;;24.40;61.80;;;;;;6249383;23;20007;-70
2021/08/26 08:44:37;;;;;;;10.43;5.53;;;24.70;63.10;;;;;;6250317;23;20010;-70
2021/08/26 08:47:04;;;;;;;9.10;5.22;;;25.00;61.60;;;;;;6249803;23;20004;-70
2021/08/26 08:49:35;;;;;;;10.95;4.80;;;25.30;64.30;;;;;;6249206;23;20042;-70
2021/08/26 08:52:01;;;;;;;9.30;4.82;;;25.60;63.80;;;;;;6250609;23;20007;-71
2021/08/26 08:54:27;;;;;;;10.20;4.70;;;26.00;61.30;;;;;;6249211;23;20000;-70
2021/08/26 08:56:53;;;;;;;8.40;5.28;;;26.30;62.00;;;;;;6247723;23;20771;-70
2021/08/26 08:59:19;;;;;;;9.57;5.05;;;26.60;60.50;;;;;;6250802;23;20002;-70
2021/08/26 09:01:54;;;;;;;8.75;4.43;;;26.90;61.30;;;;;;6250231;23;20023;-70
2021/08/26 09:04:22;;;;;;;8.13;4.65;;;27.10;61.70;;;;;;6249986;23;20000;-70
2021/08/26 09:06:49;;;;;;;10.73;4.80;;;27.40;58.50;;;;;;6249351;23;20053;-70
2021/08/26 09:09:16;;;;;;;23.92;15.23;;;27.60;59.90;;;;;;6250299;23;20138;-71
2021/08/26 09:11:54;;;;;;;11.50;6.13;;;27.90;57.10;;;;;;6250323;23;20509;-72
2021/08/26 09:14:24;;;;;;;8.40;4.40;;;28.00;57.90;;;;;;6250077;23;20008;-72
2021/08/26 09:16:51;;;;;;;7.63;4.45;;;28.20;58.10;;;;;;6250138;23;20000;-71
2021/08/26 09:19:29;;;;;;;9.18;4.38;;;28.40;57.40;;;;;;6249467;23;20339;-71
2021/08/26 09:21:59;;;;;;;8.98;3.88;;;28.60;56.30;;;;;;6249276;23;20083;-70
2021/08/26 09:24:48;;;;;;;11.95;4.28;;;28.80;55.60;;;;;;6249629;23;20000;-70
2021/08/26 09:27:36;;;;;;;8.45;4.05;;;29.00;55.10;;;;;;6250457;23;20000;-70
2021/08/26 09:30:19;;;;;;;7.47;4.18;;;29.20;53.00;;;;;;6250148;23;20305;-71
2021/08/26 09:33:00;;;;;;;8.82;4.28;;;29.40;52.70;;;;;;6249587;23;20004;-70
2021/08/26 09:35:33;;;;;;;7.72;4.00;;;29.50;53.10;;;;;;6250090;23;20024;-71
2021/08/26 09:38:03;;;;;;;9.95;3.85;;;29.70;52.80;;;;;;6249453;23;20367;-71
2021/08/26 09:40:42;;;;;;;9.02;4.30;;;29.90;53.90;;;;;;6249747;23;20012;-70
2021/08/26 09:43:08;;;;;;;7.90;4.18;;;30.10;54.90;;;;;;6249727;23;20004;-70
2021/08/26 09:45:37;;;;;;;9.77;3.95;;;30.40;49.40;;;;;;6249746;23;20000;-70
2021/08/26 09:48:11;;;;;;;8.98;3.65;;;30.50;50.40;;;;;;6249668;23;20419;-70
2021/08/26 09:50:42;;;;;;;7.75;4.47;;;30.60;51.90;;;;;;6249736;23;20030;-70
2021/08/26 09:53:09;;;;;;;12.05;4.10;;;30.50;50.60;;;;;;6249759;23;20039;-70
2021/08/26 09:55:56;;;;;;;8.07;3.38;;;30.50;47.40;;;;;;6250010;23;19996;-70
2021/08/26 09:58:27;;;;;;;7.13;3.50;;;30.50;51.50;;;;;;6247530;23;19996;-70
2021/08/26 10:01:10;;;;;;;8.30;3.45;;;30.60;51.70;;;;;;6251944;23;20008;-68
2021/08/26 10:03:36;;;;;;;7.32;4.05;;;30.90;48.40;;;;;;6251928;23;20062;-68
2021/08/26 10:06:02;;;;;;;9.80;3.17;;;31.00;49.00;;;;;;6251346;23;20071;-67
2021/08/26 10:08:31;;;;;;;8.23;3.28;;;31.00;51.10;;;;;;6252162;23;20004;-68
2021/08/26 10:10:58;;;;;;;7.65;3.50;;;31.10;50.60;;;;;;6252318;23;20046;-67
2021/08/26 10:13:24;;;;;;;8.30;3.20;;;31.20;48.20;;;;;;6252350;23;20007;-67
2021/08/26 10:15:50;;;;;;;8.30;3.70;;;31.20;49.40;;;;;;6252192;23;20000;-67
2021/08/26 10:18:19;;;;;;;6.32;2.90;;;31.20;47.40;;;;;;6249728;23;20383;-67
2021/08/26 10:20:45;;;;;;;5.45;3.15;;;31.30;48.20;;;;;;6251746;23;20082;-67
2021/08/26 10:23:13;;;;;;;7.80;3.30;;;31.30;48.50;;;;;;6251558;23;20003;-67
2021/08/26 10:25:42;;;;;;;8.00;3.55;;;31.40;49.60;;;;;;6252233;23;20007;-70
2021/08/26 10:28:09;;;;;;;6.75;3.70;;;31.50;48.80;;;;;;6251329;23;20126;-70
2021/08/26 10:30:42;;;;;;;7.32;2.95;;;31.50;47.80;;;;;;6251905;23;20362;-71
2021/08/26 10:33:20;;;;;;;9.90;3.15;;;31.60;48.90;;;;;;6251757;23;20007;-70
2021/08/26 10:35:55;;;;;;;6.80;2.83;;;31.70;47.50;;;;;;6251946;23;20027;-70
2021/08/26 10:38:29;;;;;;;7.53;3.03;;;31.90;46.40;;;;;;6251708;23;20000;-70
2021/08/26 10:40:57;;;;;;;6.93;2.70;;;32.00;48.10;;;;;;6250866;23;20048;-73
2021/08/26 10:43:38;;;;;;;7.28;3.15;;;32.20;48.00;;;;;;6250709;23;19996;-70
2021/08/26 10:46:09;;;;;;;5.95;3.03;;;32.30;47.50;;;;;;6250629;23;20446;-70
2021/08/26 10:48:36;;;;;;;6.47;3.03;;;32.40;47.60;;;;;;6251532;23;20001;-70
2021/08/26 10:51:07;;;;;;;7.93;2.78;;;32.60;46.90;;;;;;6251386;23;20079;-71
2021/08/26 10:53:34;;;;;;;;;;;32.60;46.90;;;;;;6251494;23;20326;-70
2021/08/26 10:56:21;;;;;;;8.77;3.05;;;32.50;46.70;;;;;;6251648;23;19906;-70
2021/08/26 10:58:51;;;;;;;8.80;3.10;;;32.30;45.40;;;;;;6251824;23;20001;-71
2021/08/26 11:01:39;;;;;;;5.70;2.87;;;32.10;43.90;;;;;;6251797;23;20091;-70
2021/08/26 11:04:20;;;;;;;7.53;3.10;;;31.80;45.10;;;;;;6251782;23;20004;-72
2021/08/26 11:06:47;;;;;;;6.60;3.20;;;31.50;44.20;;;;;;6224791;23;20032;-71
2021/08/26 11:09:13;;;;;;;7.20;3.20;;;31.20;44.60;;;;;;6251864;23;20010;-72
2021/08/26 11:11:45;;;;;;;10.90;5.50;;;31.00;45.30;;;;;;6224473;23;20004;-72
2021/08/26 11:14:20;;;;;;;10.05;6.07;;;30.90;44.70;;;;;;6251752;23;20003;-72
2021/08/26 11:16:52;;;;;;;24.05;16.80;;;30.90;44.70;;;;;;6250998;23;20000;-72
2021/08/26 11:19:18;;;;;;;14.25;10.27;;;30.90;45.90;;;;;;6251683;23;20034;-75
2021/08/26 11:21:44;;;;;;;9.35;5.00;;;30.80;45.90;;;;;;6251310;23;20008;-75
2021/08/26 11:24:12;;;;;;;8.15;4.65;;;30.60;45.90;;;;;;6251639;23;20019;-73
2021/08/26 11:26:47;;;;;;;12.25;4.90;;;30.50;44.90;;;;;;6251025;23;20000;-75
2021/08/26 11:29:21;;;;;;;9.90;4.85;;;30.30;44.70;;;;;;6251500;23;20000;-75
2021/08/26 11:32:02;;;;;;;12.35;4.68;;;30.10;45.10;;;;;;6224385;23;20082;-76
2021/08/26 11:34:37;;;;;;;11.37;4.63;;;29.80;45.10;;;;;;6251559;23;20028;-73
2021/08/26 11:37:07;;;;;;;13.65;4.50;;;29.50;45.60;;;;;;6251369;23;20000;-74
2021/08/26 11:39:39;;;;;;;9.85;4.82;;;29.30;45.80;;;;;;6251452;23;20000;-75
2021/08/26 11:42:07;;;;;;;10.02;4.88;;;29.10;45.30;;;;;;6251457;23;20015;-73
2021/08/26 11:44:33;;;;;;;8.30;4.60;;;28.90;45.60;;;;;;6251703;23;20078;-73
2021/08/26 11:47:00;;;;;;;11.02;5.13;;;28.80;45.70;;;;;;6251527;23;20011;-72
2021/08/26 11:49:36;;;;;;;8.85;4.90;;;28.70;46.20;;;;;;6250275;23;20127;-72
2021/08/26 11:52:09;;;;;;;11.98;4.97;;;28.50;46.30;;;;;;6250799;23;20004;-72
2021/08/26 11:54:44;;;;;;;8.38;4.75;;;28.30;46.40;;;;;;6251564;23;20000;-71
2021/08/26 11:57:10;;;;;;;10.35;5.43;;;28.20;45.70;;;;;;6251651;23;20056;-72
2021/08/26 11:59:41;;;;;;;10.55;5.18;;;28.00;46.00;;;;;;6250935;23;20001;-72
2021/08/26 12:02:27;;;;;;;9.37;5.33;;;27.90;46.50;;;;;;6250644;23;20011;-72
2021/08/26 12:04:59;;;;;;;8.82;4.60;;;27.70;46.70;;;;;;6251347;23;20289;-73
2021/08/26 12:07:32;;;;;;;10.57;5.43;;;27.60;46.80;;;;;;6251431;23;20466;-74
2021/08/26 12:10:17;;;;;;;8.32;5.05;;;27.50;47.00;;;;;;6251131;23;20228;-72
2021/08/26 12:12:53;;;;;;;11.88;5.50;;;27.40;47.00;;;;;;6251114;23;20074;-72
2021/08/26 12:15:24;;;;;;;10.02;5.40;;;27.30;47.30;;;;;;6250646;23;20000;-71
2021/08/26 12:18:02;;;;;;;15.65;7.97;;;27.20;47.30;;;;;;6250786;23;20000;-72
2021/08/26 12:20:30;;;;;;;35.65;22.15;;;27.10;47.50;;;;;;6251120;23;20000;-72
2021/08/26 12:22:56;;;;;;;28.92;19.60;;;27.00;47.50;;;;;;6250537;23;20462;-72
2021/08/26 12:25:32;;;;;;;19.00;12.05;;;26.80;47.60;;;;;;6250192;23;20000;-71
2021/08/26 12:28:01;;;;;;;13.57;7.57;;;26.70;47.60;;;;;;6250682;23;20004;-71
2021/08/26 12:30:27;;;;;;;12.52;6.55;;;26.60;47.90;;;;;;6250873;23;20000;-71
2021/08/26 12:33:03;;;;;;;10.07;6.18;;;26.50;47.90;;;;;;6248925;23;20333;-71
2021/08/26 12:35:29;;;;;;;12.55;7.22;;;26.50;48.00;;;;;;6249299;23;20080;-71
2021/08/26 12:37:58;;;;;;;11.93;7.15;;;26.50;48.30;;;;;;6250394;23;20000;-71
2021/08/26 12:40:27;;;;;;;11.63;6.90;;;26.40;48.20;;;;;;6249884;23;20016;-71
2021/08/26 12:43:02;;;;;;;11.38;6.47;;;26.40;48.30;;;;;;6250079;23;20011;-71
2021/08/26 12:45:28;;;;;;;13.00;6.65;;;26.40;48.30;;;;;;6250799;23;20008;-72